Hauptseite
METAR-TAF:

METAR-TAF

Flughäfen :

Flughafen Erfurt-Weimar

Erfurt, Deutschland

Breite: 50-59N, Länge: 010-58E, Höhe: 315 m

Beobachtung

Neuester Wetterbericht von vor 22 Minuten, um 23:20 UTC
Wind 6 kt aus Süd
Temperatur 3°C
Luftfeuchtigkeit 87%
Luftdruck 1002 hPa
Sichtweite 10 km oder mehr
keine Wolken unter 1500 m und keine Kumulonimbus oder Gewitterwolken

METAR: EDDE 122320Z 18006KT CAVOK 03/01 Q1002

Zeit: 00:42 (23:42 UTC)

Prognose

Neuester Wetterbericht von vor 42 Minuten, um 23:00 UTC
Gültige Prognose vom 13 um 00 UTC bis 13 um 24 UTC
Wind 8 kt aus Süd/Südost
Sichtweite 10 km oder mehr
Aufgelockert bewölkt in der Höhe von 3000 ft
Übergehend zu
vom 13 um 06 UTC bis 13 um 09 UTC
Wind 8 kt aus Südwest

TAF: EDDE 122300Z 1300/1324 16008KT 9999 SCT030 BECMG 1306/1309 22008KT

Wetterbeobachtungen und Prognosen von mehr als 4000 Flughäfen (METAR und TAF Bericht).

Die verfügbaren Stationen werden durch gelbe und rote Markierungen auf der Karte dargestellt.

Führen Sie die Maus auf sie, um den Namen der Station zu sehen.

Darauf klicken, um die Beobachtung von Wetterbeobachtungen und Prognosen zu sehen.

Um die Karte zu ändern : klicken Sie auf den grünen Tasten mit einem schwarzen Kreuz Zum Vergrößern, auf den grünen Button mit einem Gedankenstrich zu verkleinern, oder auf die grünen Pfeile für benachbarte Karten.


METAR-TAF: